createdAt,value
2022-12-26T00:00:16.483Z,87.97
2022-12-26T00:01:13.310Z,87.78
2022-12-26T00:01:50.875Z,87.77
2022-12-26T00:02:24.710Z,88.16
2022-12-26T00:02:58.397Z,88.20
2022-12-26T00:03:32.173Z,88.18
2022-12-26T00:04:07.012Z,88.27
2022-12-26T00:05:00.714Z,88.28
2022-12-26T00:05:37.901Z,88.24
2022-12-26T00:06:16.860Z,88.28
2022-12-26T00:06:50.573Z,88.67
2022-12-26T00:07:24.186Z,88.52
2022-12-26T00:07:57.832Z,88.49
2022-12-26T00:08:31.300Z,88.52
2022-12-26T00:09:06.855Z,88.47
2022-12-26T00:09:40.286Z,88.40
2022-12-26T00:10:13.841Z,88.30
2022-12-26T00:10:47.452Z,88.25
2022-12-26T00:11:22.260Z,88.38
2022-12-26T00:11:55.784Z,88.33
2022-12-26T00:12:29.392Z,88.43
2022-12-26T00:13:37.308Z,88.22
2022-12-26T00:14:08.988Z,88.25
2022-12-26T00:14:42.496Z,88.15
2022-12-26T00:15:15.991Z,88.39
2022-12-26T00:15:49.779Z,88.53
2022-12-26T00:16:25.166Z,88.34
2022-12-26T00:16:58.646Z,88.18
2022-12-26T00:17:32.476Z,88.23
2022-12-26T00:18:06.070Z,88.12
2022-12-26T00:18:40.190Z,88.32
2022-12-26T00:19:14.606Z,88.08
2022-12-26T00:19:48.278Z,88.26
2022-12-26T00:20:22.049Z,88.26
2022-12-26T00:20:55.565Z,87.99
2022-12-26T00:21:29.522Z,88.25
2022-12-26T00:22:03.408Z,88.29
2022-12-26T00:22:36.972Z,88.08
2022-12-26T00:23:12.502Z,88.03
2022-12-26T00:23:46.564Z,88.00
2022-12-26T00:24:20.284Z,88.16
2022-12-26T00:24:53.794Z,88.17
2022-12-26T00:25:27.531Z,87.99
2022-12-26T00:26:10.425Z,88.00
2022-12-26T00:26:44.064Z,88.11
2022-12-26T00:27:17.660Z,88.14
2022-12-26T00:27:54.373Z,88.11
2022-12-26T00:28:27.923Z,88.05
2022-12-26T00:29:01.612Z,88.14
2022-12-26T00:29:35.201Z,88.18
2022-12-26T00:30:09.562Z,88.12
2022-12-26T00:30:43.138Z,88.28
2022-12-26T00:31:22.728Z,88.15
2022-12-26T00:31:56.404Z,88.11
2022-12-26T00:32:30.081Z,88.17
2022-12-26T00:33:03.786Z,88.18
2022-12-26T00:33:38.195Z,88.05
2022-12-26T00:34:12.776Z,88.16
2022-12-26T00:34:46.789Z,88.22
2022-12-26T00:35:20.487Z,88.33
2022-12-26T00:35:53.986Z,88.24
2022-12-26T00:36:30.685Z,88.26
2022-12-26T00:37:04.210Z,88.12
2022-12-26T00:37:37.872Z,88.02
2022-12-26T00:38:11.619Z,88.01
2022-12-26T00:38:46.104Z,88.24
2022-12-26T00:39:19.643Z,88.12
2022-12-26T00:39:53.213Z,88.17
2022-12-26T00:40:26.777Z,88.18
2022-12-26T00:41:00.570Z,88.23
2022-12-26T00:41:34.510Z,88.22
2022-12-26T00:42:08.115Z,88.18
2022-12-26T00:42:41.737Z,88.37
2022-12-26T00:43:15.217Z,88.28
2022-12-26T00:43:49.919Z,88.33
2022-12-26T00:44:23.444Z,88.26
2022-12-26T00:44:57.091Z,88.18
2022-12-26T00:45:30.681Z,88.28
2022-12-26T00:46:04.906Z,88.18
2022-12-26T00:46:38.577Z,88.14
2022-12-26T00:47:12.157Z,88.28
2022-12-26T00:47:45.734Z,88.25
2022-12-26T00:48:19.384Z,88.37
2022-12-26T00:48:53.287Z,88.41
2022-12-26T00:49:26.953Z,88.28
2022-12-26T00:50:14.253Z,88.24
2022-12-26T00:50:49.244Z,88.42
2022-12-26T00:51:23.137Z,88.33
2022-12-26T00:51:57.097Z,88.50
2022-12-26T00:52:30.678Z,88.47
2022-12-26T00:53:04.355Z,88.47
2022-12-26T00:53:37.987Z,88.34
2022-12-26T00:54:11.740Z,88.42
2022-12-26T00:54:45.459Z,88.49
2022-12-26T00:55:19.317Z,88.54
2022-12-26T00:55:53.945Z,88.50
2022-12-26T00:56:27.530Z,88.36
2022-12-26T00:57:01.189Z,88.28
2022-12-26T00:57:34.849Z,88.47
2022-12-26T00:58:08.795Z,88.47
2022-12-26T00:58:42.565Z,88.48
2022-12-26T00:59:16.201Z,88.47
2022-12-26T00:59:50.031Z,88.45
2022-12-26T01:00:24.166Z,88.52
2022-12-26T01:01:07.809Z,88.53
2022-12-26T01:01:42.078Z,88.17
2022-12-26T01:02:34.487Z,88.33
2022-12-26T01:03:09.233Z,88.23
2022-12-26T01:03:44.254Z,88.44
2022-12-26T01:04:17.834Z,88.37
2022-12-26T01:04:51.677Z,88.45
2022-12-26T01:05:25.317Z,88.29
2022-12-26T01:05:58.957Z,88.47
2022-12-26T01:06:33.200Z,88.58
2022-12-26T01:07:07.027Z,88.69
2022-12-26T01:08:19.968Z,88.61
2022-12-26T01:08:35.611Z,88.54
2022-12-26T01:09:12.295Z,88.69
2022-12-26T01:09:45.962Z,88.66
2022-12-26T01:10:19.568Z,88.61
2022-12-26T01:10:55.740Z,88.50
2022-12-26T01:11:44.524Z,88.67
2022-12-26T01:12:19.399Z,88.71
2022-12-26T01:12:52.959Z,88.69
2022-12-26T01:13:26.521Z,88.73
2022-12-26T01:14:00.179Z,88.74
2022-12-26T01:14:34.501Z,88.58
2022-12-26T01:15:08.818Z,88.55
2022-12-26T01:15:48.894Z,88.54
2022-12-26T01:16:22.495Z,88.44
2022-12-26T01:16:56.314Z,88.58
2022-12-26T01:17:30.383Z,88.61
2022-12-26T01:18:04.229Z,88.63
2022-12-26T01:18:38.720Z,88.55
2022-12-26T01:19:13.085Z,88.64
2022-12-26T01:19:46.881Z,88.61
2022-12-26T01:20:20.506Z,88.57
2022-12-26T01:21:06.274Z,88.70
2022-12-26T01:21:39.954Z,88.14
2022-12-26T01:22:14.531Z,88.36
2022-12-26T01:22:48.182Z,88.52
2022-12-26T01:23:21.829Z,88.54
2022-12-26T01:23:55.741Z,88.54
2022-12-26T01:24:29.354Z,88.38
2022-12-26T01:25:02.978Z,88.31
2022-12-26T01:25:36.651Z,88.13
2022-12-26T01:26:30.160Z,88.17
2022-12-26T01:27:04.049Z,88.40
2022-12-26T01:27:37.590Z,88.47
2022-12-26T01:28:11.124Z,88.29
2022-12-26T01:28:44.676Z,88.62
2022-12-26T01:29:18.346Z,88.69
2022-12-26T01:29:54.308Z,88.72
2022-12-26T01:30:28.018Z,88.82
2022-12-26T01:31:03.674Z,88.77
2022-12-26T01:31:37.314Z,88.65
2022-12-26T01:32:11.099Z,88.81
2022-12-26T01:32:45.062Z,88.85
2022-12-26T01:33:18.735Z,88.71
2022-12-26T01:33:52.316Z,88.79
2022-12-26T01:34:25.864Z,88.80
2022-12-26T01:34:59.466Z,88.80
2022-12-26T01:35:33.510Z,88.93
2022-12-26T01:36:07.126Z,88.77
2022-12-26T01:36:40.650Z,88.85
2022-12-26T01:37:16.669Z,89.00
2022-12-26T01:37:50.497Z,88.97
2022-12-26T01:38:24.099Z,88.94
2022-12-26T01:38:57.834Z,88.90
2022-12-26T01:39:31.485Z,89.00
2022-12-26T01:40:05.668Z,89.08
2022-12-26T01:40:43.362Z,88.96
2022-12-26T01:41:17.522Z,89.04
2022-12-26T01:41:51.941Z,89.09
2022-12-26T01:42:27.117Z,89.26
2022-12-26T01:43:00.481Z,89.22
2022-12-26T01:43:58.580Z,89.22
2022-12-26T01:45:17.414Z,89.06
2022-12-26T01:45:51.663Z,89.14
2022-12-26T01:46:28.045Z,89.45
2022-12-26T01:47:01.730Z,89.27
2022-12-26T01:47:58.448Z,89.14
2022-12-26T01:48:34.664Z,88.99
2022-12-26T01:49:23.977Z,89.03
2022-12-26T01:49:57.564Z,89.32
2022-12-26T01:50:48.961Z,89.33
2022-12-26T01:51:26.898Z,89.56
2022-12-26T01:52:06.249Z,89.41
2022-12-26T01:52:47.637Z,89.50
2022-12-26T01:53:28.299Z,89.34
2022-12-26T01:54:40.177Z,89.50
2022-12-26T01:54:58.451Z,89.44
2022-12-26T01:55:33.422Z,89.58
2022-12-26T01:56:22.016Z,89.64
2022-12-26T01:56:55.747Z,89.51
2022-12-26T01:57:38.312Z,89.53
2022-12-26T01:58:20.363Z,89.67
2022-12-26T01:59:00.480Z,89.75
2022-12-26T01:59:39.337Z,89.85
2022-12-26T02:00:14.420Z,89.78
2022-12-26T02:00:49.240Z,89.88
2022-12-26T02:01:29.248Z,89.72
2022-12-26T02:02:04.569Z,89.72
2022-12-26T02:02:57.951Z,89.96
2022-12-26T02:03:50.851Z,89.88
2022-12-26T02:04:48.988Z,89.79
2022-12-26T02:05:35.257Z,89.66
2022-12-26T02:06:10.895Z,89.74
2022-12-26T02:06:44.530Z,89.94
2022-12-26T02:07:18.228Z,89.79
2022-12-26T02:07:52.134Z,90.07
2022-12-26T02:08:33.320Z,89.80
2022-12-26T02:09:07.317Z,89.94
2022-12-26T02:09:41.705Z,89.92
2022-12-26T02:10:21.098Z,89.64
2022-12-26T02:10:57.538Z,89.61
2022-12-26T02:11:39.435Z,89.81
2022-12-26T02:12:36.485Z,89.87
2022-12-26T02:13:11.897Z,89.84
2022-12-26T02:13:45.621Z,89.87
2022-12-26T02:14:19.296Z,89.77
2022-12-26T02:14:52.895Z,89.81
2022-12-26T02:15:26.748Z,89.76
2022-12-26T02:16:02.492Z,89.79
2022-12-26T02:16:38.827Z,89.79
2022-12-26T02:17:13.270Z,89.88
2022-12-26T02:17:46.924Z,89.86
2022-12-26T02:18:20.620Z,89.85
2022-12-26T02:18:54.159Z,89.81
2022-12-26T02:19:41.694Z,89.86
2022-12-26T02:20:25.233Z,89.83
2022-12-26T02:21:12.097Z,90.09
2022-12-26T02:21:52.628Z,90.01
2022-12-26T02:23:13.931Z,89.90
2022-12-26T02:24:08.526Z,89.77
2022-12-26T02:24:58.840Z,89.57
2022-12-26T02:25:57.513Z,89.66
2022-12-26T02:26:58.857Z,89.85
2022-12-26T02:27:44.192Z,89.98
2022-12-26T02:28:23.687Z,89.86
2022-12-26T02:29:23.498Z,89.98
2022-12-26T02:30:35.289Z,89.81
2022-12-26T02:31:23.016Z,89.67
2022-12-26T02:32:11.743Z,89.62
2022-12-26T02:33:03.781Z,89.71
2022-12-26T02:34:08.423Z,89.75
2022-12-26T02:35:12.998Z,89.79
2022-12-26T02:36:02.859Z,89.82
2022-12-26T02:36:51.164Z,89.79
2022-12-26T02:37:42.369Z,89.83
2022-12-26T02:38:19.834Z,90.19
2022-12-26T02:39:45.048Z,90.13
2022-12-26T02:40:48.322Z,90.13
2022-12-26T02:42:03.444Z,90.08
2022-12-26T02:42:42.314Z,90.19
2022-12-26T02:43:45.010Z,90.20
2022-12-26T02:45:08.237Z,90.31
2022-12-26T02:46:07.139Z,90.20
2022-12-26T02:47:04.065Z,90.15
2022-12-26T02:47:54.098Z,90.11
2022-12-26T02:48:47.302Z,90.11
2022-12-26T02:51:18.242Z,90.37
2022-12-26T02:52:16.519Z,90.39
2022-12-26T02:53:27.940Z,89.88
2022-12-26T02:54:22.845Z,89.83
2022-12-26T02:55:29.358Z,89.87
2022-12-26T02:56:37.777Z,89.76
2022-12-26T02:57:36.173Z,89.91
2022-12-26T02:58:41.556Z,89.82
2022-12-26T02:59:59.576Z,90.08
2022-12-26T03:00:55.877Z,90.04
2022-12-26T03:01:59.559Z,90.02
2022-12-26T03:02:59.475Z,89.82
2022-12-26T03:03:56.338Z,89.85
2022-12-26T03:04:53.319Z,89.81
2022-12-26T03:05:54.130Z,89.81
2022-12-26T03:06:50.638Z,89.58
2022-12-26T03:07:51.235Z,89.69
2022-12-26T03:09:13.876Z,90.02
2022-12-26T03:10:09.591Z,90.13
2022-12-26T03:11:02.485Z,90.45
2022-12-26T03:11:59.284Z,90.35
2022-12-26T03:13:12.545Z,90.09
2022-12-26T03:13:47.768Z,90.26
2022-12-26T03:14:27.501Z,90.09
2022-12-26T03:15:05.020Z,90.28
2022-12-26T03:16:09.042Z,90.29
2022-12-26T03:17:05.452Z,90.16
2022-12-26T03:17:43.848Z,90.20
2022-12-26T03:18:59.526Z,90.00
2022-12-26T03:19:15.532Z,90.41
2022-12-26T03:20:02.235Z,90.31
2022-12-26T03:20:38.752Z,90.17
2022-12-26T03:21:15.564Z,90.18
2022-12-26T03:21:50.004Z,90.28
2022-12-26T03:22:32.986Z,90.42
2022-12-26T03:23:10.786Z,90.13
2022-12-26T03:23:47.663Z,90.33
2022-12-26T03:24:22.731Z,90.41
2022-12-26T03:25:15.610Z,90.42
2022-12-26T03:26:16.115Z,90.49
2022-12-26T03:26:54.410Z,90.44
2022-12-26T03:27:27.901Z,90.53
2022-12-26T03:28:01.682Z,90.46
2022-12-26T03:28:35.543Z,90.31
2022-12-26T03:29:31.381Z,90.47
2022-12-26T03:30:24.499Z,90.35
2022-12-26T03:31:02.116Z,90.38
2022-12-26T03:31:37.869Z,90.48
2022-12-26T03:32:13.142Z,90.50
2022-12-26T03:32:46.659Z,90.48
2022-12-26T03:33:41.519Z,90.52
2022-12-26T03:34:17.967Z,90.67
2022-12-26T03:34:52.126Z,90.75
2022-12-26T03:35:30.975Z,90.72
2022-12-26T03:36:06.331Z,90.40
2022-12-26T03:36:49.815Z,90.52
2022-12-26T03:37:47.380Z,90.60
2022-12-26T03:39:08.085Z,90.50
2022-12-26T03:40:12.163Z,90.75
2022-12-26T03:41:36.400Z,90.74
2022-12-26T03:42:51.218Z,90.69
2022-12-26T03:44:01.604Z,90.72
2022-12-26T03:45:10.631Z,90.53
2022-12-26T03:46:19.466Z,90.30
2022-12-26T03:47:25.205Z,90.85
2022-12-26T03:48:35.646Z,90.91
2022-12-26T03:49:31.499Z,90.83
2022-12-26T03:50:40.803Z,91.09
2022-12-26T03:51:44.208Z,90.85
2022-12-26T03:52:51.861Z,90.76
2022-12-26T03:54:09.107Z,91.12
2022-12-26T03:55:27.605Z,90.97
2022-12-26T03:56:27.446Z,90.71
2022-12-26T03:57:24.539Z,90.81
2022-12-26T03:58:29.824Z,90.88
2022-12-26T03:59:28.357Z,90.98
2022-12-26T04:00:30.043Z,91.19
2022-12-26T04:01:27.764Z,91.08
2022-12-26T04:02:26.215Z,91.22
2022-12-26T04:03:26.656Z,91.07
2022-12-26T04:04:21.763Z,91.08
2022-12-26T04:05:15.989Z,91.06
2022-12-26T04:06:11.833Z,91.10
2022-12-26T04:07:10.556Z,91.13
2022-12-26T04:08:18.714Z,90.91
2022-12-26T04:09:20.825Z,91.00
2022-12-26T04:10:33.416Z,90.90
2022-12-26T04:11:35.754Z,90.97
2022-12-26T04:12:36.699Z,90.89
2022-12-26T04:13:58.715Z,90.93
2022-12-26T04:15:03.041Z,90.95
2022-12-26T04:16:15.405Z,90.74
2022-12-26T04:17:24.738Z,91.06
2022-12-26T04:18:23.139Z,91.08
2022-12-26T04:19:25.090Z,91.37
2022-12-26T04:20:21.073Z,91.43
2022-12-26T04:20:54.738Z,91.23
2022-12-26T04:21:53.422Z,91.22
2022-12-26T04:23:02.400Z,91.34
2022-12-26T04:24:20.991Z,91.07
2022-12-26T04:25:50.910Z,91.04
2022-12-26T04:26:51.528Z,91.33
2022-12-26T04:27:46.993Z,91.32
2022-12-26T04:28:41.697Z,91.20
2022-12-26T04:29:34.462Z,91.35
2022-12-26T04:30:27.585Z,91.28
2022-12-26T04:31:28.661Z,91.31
2022-12-26T04:32:46.535Z,91.43
2022-12-26T04:33:49.070Z,91.42
2022-12-26T04:34:49.319Z,91.41
2022-12-26T04:35:59.817Z,91.30
2022-12-26T04:37:16.041Z,91.32
2022-12-26T04:38:10.417Z,91.35
2022-12-26T04:39:08.154Z,91.44
2022-12-26T04:40:04.476Z,91.17
2022-12-26T04:41:04.035Z,91.00
2022-12-26T04:41:58.209Z,91.15
2022-12-26T04:42:52.286Z,91.23
2022-12-26T04:43:51.299Z,91.12
2022-12-26T04:44:27.652Z,91.33
2022-12-26T04:45:02.896Z,91.31
2022-12-26T04:45:36.939Z,91.48
2022-12-26T04:46:12.775Z,91.42
2022-12-26T04:46:48.544Z,91.40
2022-12-26T04:47:22.184Z,91.45
2022-12-26T04:48:14.446Z,91.45
2022-12-26T04:49:09.591Z,91.41
2022-12-26T04:50:03.060Z,91.29
2022-12-26T04:50:36.775Z,91.63
2022-12-26T04:51:10.188Z,91.38
2022-12-26T04:51:43.653Z,91.53
2022-12-26T04:52:17.151Z,91.37
2022-12-26T04:52:59.076Z,91.64
2022-12-26T04:53:32.750Z,91.36
2022-12-26T04:54:07.179Z,91.28
2022-12-26T04:54:41.656Z,91.38
2022-12-26T04:55:15.830Z,91.40
2022-12-26T04:55:49.362Z,91.38
2022-12-26T04:56:22.902Z,91.37
2022-12-26T04:56:56.538Z,91.08
2022-12-26T04:57:30.106Z,91.21
2022-12-26T04:58:03.968Z,91.14
2022-12-26T04:58:37.566Z,91.09
2022-12-26T04:59:11.096Z,91.12
2022-12-26T04:59:44.578Z,91.01
2022-12-26T05:00:18.292Z,91.07
2022-12-26T05:00:53.742Z,91.15
2022-12-26T05:01:46.863Z,91.09
2022-12-26T05:02:39.082Z,91.14
2022-12-26T05:03:34.043Z,91.11
2022-12-26T05:04:32.082Z,91.32
2022-12-26T05:05:24.567Z,91.21
2022-12-26T05:06:17.184Z,91.24
2022-12-26T05:07:09.719Z,91.15
2022-12-26T05:08:02.010Z,91.24
2022-12-26T05:09:03.618Z,90.99
2022-12-26T05:09:37.642Z,90.88
2022-12-26T05:10:24.308Z,90.81
2022-12-26T05:10:57.777Z,90.90
2022-12-26T05:11:34.192Z,90.82
2022-12-26T05:12:09.918Z,90.71
2022-12-26T05:12:43.371Z,90.62
2022-12-26T05:13:16.860Z,90.95
2022-12-26T05:13:53.550Z,90.89
2022-12-26T05:14:27.195Z,90.90
2022-12-26T05:15:01.015Z,90.88
2022-12-26T05:15:54.699Z,90.89
2022-12-26T05:16:47.351Z,90.93
2022-12-26T05:17:39.593Z,90.99
2022-12-26T05:18:31.606Z,91.24
2022-12-26T05:19:24.992Z,91.18
2022-12-26T05:20:28.282Z,91.15
2022-12-26T05:21:21.953Z,91.09
2022-12-26T05:22:28.208Z,91.00
2022-12-26T05:23:21.671Z,90.98
2022-12-26T05:24:13.908Z,91.03
2022-12-26T05:25:05.761Z,91.13
2022-12-26T05:26:02.369Z,91.22
2022-12-26T05:26:54.707Z,91.29
2022-12-26T05:27:56.430Z,91.28
2022-12-26T05:28:42.028Z,91.25
2022-12-26T05:29:15.448Z,91.38
2022-12-26T05:29:49.842Z,91.41
2022-12-26T05:30:24.123Z,91.35
2022-12-26T05:30:58.226Z,91.32
2022-12-26T05:31:36.200Z,91.32
2022-12-26T05:32:10.239Z,91.26
2022-12-26T05:33:02.415Z,91.21
2022-12-26T05:33:54.776Z,91.42
2022-12-26T05:34:28.288Z,91.49
2022-12-26T05:35:01.899Z,91.32
2022-12-26T05:35:36.797Z,91.38
2022-12-26T05:36:11.083Z,91.22
2022-12-26T05:36:49.002Z,91.22
2022-12-26T05:37:22.554Z,91.10
2022-12-26T05:37:56.275Z,91.10
2022-12-26T05:38:29.777Z,91.09
2022-12-26T05:39:04.067Z,91.13
2022-12-26T05:39:37.585Z,90.93
2022-12-26T05:40:12.533Z,90.84
2022-12-26T05:40:45.955Z,90.97
2022-12-26T05:41:19.402Z,90.88
2022-12-26T05:41:52.901Z,91.11
2022-12-26T05:42:26.271Z,91.24
2022-12-26T05:42:59.693Z,91.25
2022-12-26T05:43:33.113Z,91.31
2022-12-26T05:44:07.803Z,91.25
2022-12-26T05:44:41.406Z,91.32
2022-12-26T05:45:17.693Z,91.13
2022-12-26T05:45:51.630Z,91.07
2022-12-26T05:46:25.223Z,91.03
2022-12-26T05:46:58.907Z,90.86
2022-12-26T05:47:32.639Z,90.71
2022-12-26T05:48:06.612Z,90.74
2022-12-26T05:48:40.098Z,90.77
2022-12-26T05:49:13.780Z,90.73
2022-12-26T05:49:47.392Z,90.56
2022-12-26T05:50:20.910Z,90.69
2022-12-26T05:50:59.477Z,90.58
2022-12-26T05:51:33.135Z,90.64
2022-12-26T05:52:06.710Z,90.70
2022-12-26T05:52:40.185Z,90.72
2022-12-26T05:53:13.742Z,90.79
2022-12-26T05:53:48.584Z,90.92
2022-12-26T05:54:22.157Z,90.88
2022-12-26T05:54:55.791Z,90.76
2022-12-26T05:55:29.342Z,90.71
2022-12-26T05:56:05.917Z,90.77
2022-12-26T05:56:42.953Z,90.70
2022-12-26T05:57:19.387Z,90.06
2022-12-26T05:57:53.116Z,89.84
2022-12-26T05:58:26.624Z,90.11
2022-12-26T05:59:01.987Z,90.19
2022-12-26T05:59:35.578Z,90.15
2022-12-26T06:00:10.020Z,90.30
2022-12-26T06:00:43.757Z,90.07
2022-12-26T06:01:20.588Z,90.39
2022-12-26T06:01:54.358Z,90.13
2022-12-26T06:02:30.006Z,90.09
2022-12-26T06:03:04.047Z,90.19
2022-12-26T06:03:38.775Z,90.27
2022-12-26T06:04:12.413Z,90.19
2022-12-26T06:04:45.983Z,89.10
2022-12-26T06:05:20.001Z,89.08
2022-12-26T06:05:56.625Z,89.17
2022-12-26T06:06:30.348Z,89.57
2022-12-26T06:07:04.644Z,89.64
2022-12-26T06:07:38.321Z,89.71
2022-12-26T06:08:11.950Z,89.66
2022-12-26T06:08:49.313Z,89.46
2022-12-26T06:09:24.085Z,89.66
2022-12-26T06:09:57.632Z,89.51
2022-12-26T06:10:31.498Z,89.57
2022-12-26T06:11:11.091Z,89.53
2022-12-26T06:11:48.769Z,89.38
2022-12-26T06:12:22.601Z,89.68
2022-12-26T06:12:56.841Z,89.74
2022-12-26T06:13:30.344Z,89.61
2022-12-26T06:14:05.024Z,89.76
2022-12-26T06:14:38.523Z,89.63
2022-12-26T06:15:13.070Z,89.65
2022-12-26T06:15:46.530Z,89.32
2022-12-26T06:16:20.746Z,89.44
2022-12-26T06:16:54.357Z,89.68
2022-12-26T06:17:28.274Z,89.56
2022-12-26T06:18:01.894Z,89.45
2022-12-26T06:18:35.685Z,89.28
2022-12-26T06:19:09.413Z,88.99
2022-12-26T06:19:46.640Z,88.87
2022-12-26T06:20:20.502Z,89.15
2022-12-26T06:20:53.995Z,89.27
2022-12-26T06:21:27.826Z,89.52
2022-12-26T06:22:01.413Z,89.40
2022-12-26T06:22:34.998Z,89.55
2022-12-26T06:23:08.564Z,89.46
2022-12-26T06:23:42.506Z,89.39
2022-12-26T06:24:16.048Z,89.35
2022-12-26T06:24:49.748Z,89.36
2022-12-26T06:25:23.400Z,89.67
2022-12-26T06:25:57.819Z,89.32
2022-12-26T06:26:31.336Z,89.50
2022-12-26T06:27:04.944Z,89.45
2022-12-26T06:27:38.442Z,89.39
2022-12-26T06:28:11.930Z,89.15
2022-12-26T06:28:47.196Z,89.04
2022-12-26T06:29:20.874Z,89.25
2022-12-26T06:29:54.606Z,89.32
2022-12-26T06:30:28.244Z,89.16
2022-12-26T06:31:23.547Z,89.33
2022-12-26T06:31:57.324Z,89.47
2022-12-26T06:32:32.486Z,89.90
2022-12-26T06:33:06.224Z,89.30
2022-12-26T06:33:39.885Z,89.59
2022-12-26T06:34:14.031Z,89.36
2022-12-26T06:34:48.409Z,89.38
2022-12-26T06:35:22.681Z,89.50
2022-12-26T06:35:56.276Z,89.50
2022-12-26T06:36:30.439Z,89.37
2022-12-26T06:37:04.272Z,89.51
2022-12-26T06:37:37.807Z,89.62
2022-12-26T06:38:11.772Z,89.76
2022-12-26T06:38:46.059Z,89.84
2022-12-26T06:39:19.578Z,89.71
2022-12-26T06:39:53.244Z,89.45
2022-12-26T06:40:26.792Z,89.74
2022-12-26T06:41:00.317Z,89.71
2022-12-26T06:41:34.580Z,89.80
2022-12-26T06:42:09.933Z,89.68
2022-12-26T06:42:43.585Z,89.60
2022-12-26T06:43:17.042Z,89.63
2022-12-26T06:43:51.297Z,89.63
2022-12-26T06:44:24.727Z,89.66
2022-12-26T06:44:58.261Z,89.43
2022-12-26T06:45:31.753Z,89.35
2022-12-26T06:46:07.475Z,89.56
2022-12-26T06:46:40.963Z,89.57
2022-12-26T06:47:14.564Z,89.61
2022-12-26T06:47:48.071Z,89.64
2022-12-26T06:48:21.648Z,89.48
2022-12-26T06:48:55.235Z,89.41
2022-12-26T06:49:32.649Z,89.40
2022-12-26T06:50:07.329Z,89.75
2022-12-26T06:50:40.742Z,89.67
2022-12-26T06:51:20.402Z,89.73
2022-12-26T06:51:53.875Z,89.59
2022-12-26T06:52:27.544Z,89.76
2022-12-26T06:53:01.236Z,89.81
2022-12-26T06:53:35.309Z,89.68
2022-12-26T06:54:09.713Z,89.79
2022-12-26T06:54:43.207Z,89.69
2022-12-26T06:55:17.553Z,89.72
2022-12-26T06:55:52.226Z,89.47
2022-12-26T06:56:28.030Z,89.69
2022-12-26T06:57:01.531Z,89.67
2022-12-26T06:57:35.137Z,89.68
2022-12-26T06:58:08.714Z,89.51
2022-12-26T06:58:42.901Z,89.72
2022-12-26T06:59:16.296Z,89.59
2022-12-26T06:59:49.951Z,89.67
2022-12-26T07:00:23.627Z,89.78
2022-12-26T07:01:04.754Z,89.75
2022-12-26T07:01:38.720Z,89.76
2022-12-26T07:02:12.784Z,89.63
2022-12-26T07:02:51.713Z,89.71
2022-12-26T07:03:26.556Z,89.76
2022-12-26T07:04:01.232Z,89.82
2022-12-26T07:04:34.742Z,90.12
2022-12-26T07:05:08.245Z,89.99
2022-12-26T07:05:41.716Z,89.83
2022-12-26T07:06:24.438Z,89.71
2022-12-26T07:06:57.897Z,89.85
2022-12-26T07:07:33.497Z,89.85
2022-12-26T07:08:07.288Z,89.78
2022-12-26T07:08:40.686Z,89.66
2022-12-26T07:09:17.256Z,89.78
2022-12-26T07:09:50.877Z,89.87
2022-12-26T07:10:24.393Z,89.98
2022-12-26T07:10:58.114Z,89.87
2022-12-26T07:11:34.269Z,89.63
2022-12-26T07:12:07.960Z,89.56
2022-12-26T07:12:41.462Z,89.60
2022-12-26T07:13:14.935Z,89.71
2022-12-26T07:13:48.562Z,89.35
2022-12-26T07:14:22.136Z,89.55
2022-12-26T07:15:01.342Z,89.70
2022-12-26T07:15:35.671Z,89.83
2022-12-26T07:16:11.817Z,89.81
2022-12-26T07:16:46.440Z,89.98
2022-12-26T07:17:20.028Z,89.84
2022-12-26T07:17:53.580Z,89.79
2022-12-26T07:18:27.044Z,89.80
2022-12-26T07:19:00.531Z,89.73
2022-12-26T07:19:34.226Z,89.69
2022-12-26T07:20:08.879Z,89.81
2022-12-26T07:20:42.388Z,89.90
2022-12-26T07:21:16.794Z,89.71
2022-12-26T07:21:50.509Z,89.84
2022-12-26T07:22:23.999Z,89.79
2022-12-26T07:22:57.674Z,89.96
2022-12-26T07:23:32.064Z,89.96
2022-12-26T07:24:05.885Z,90.33
2022-12-26T07:24:42.653Z,90.38
2022-12-26T07:25:16.290Z,90.40
2022-12-26T07:25:49.794Z,89.81
2022-12-26T07:26:25.743Z,89.50
2022-12-26T07:26:59.339Z,89.73
2022-12-26T07:27:32.706Z,89.69
2022-12-26T07:28:06.846Z,89.69
2022-12-26T07:28:40.571Z,89.88
2022-12-26T07:29:15.421Z,89.72
2022-12-26T07:29:49.113Z,89.90
2022-12-26T07:30:22.680Z,90.00
2022-12-26T07:30:57.768Z,89.95
2022-12-26T07:31:31.406Z,89.98
2022-12-26T07:32:05.382Z,90.13
2022-12-26T07:32:38.983Z,90.07
2022-12-26T07:33:12.566Z,90.18
2022-12-26T07:33:55.023Z,90.21
2022-12-26T07:34:31.659Z,90.28
2022-12-26T07:35:06.855Z,90.35
2022-12-26T07:35:40.525Z,90.47
2022-12-26T07:36:14.048Z,90.39
2022-12-26T07:36:47.691Z,90.25
2022-12-26T07:37:21.258Z,90.05
2022-12-26T07:37:54.969Z,90.35
2022-12-26T07:38:28.451Z,90.42
2022-12-26T07:39:01.905Z,90.42
2022-12-26T07:39:37.833Z,90.52
2022-12-26T07:40:12.051Z,90.61
2022-12-26T07:40:45.801Z,90.57
2022-12-26T07:41:38.651Z,90.73
2022-12-26T07:42:12.290Z,90.76
2022-12-26T07:42:45.936Z,90.65
2022-12-26T07:43:19.686Z,90.62
2022-12-26T07:43:53.156Z,90.63
2022-12-26T07:44:28.995Z,90.80
2022-12-26T07:45:02.729Z,90.76
2022-12-26T07:45:41.884Z,90.89
2022-12-26T07:46:19.511Z,91.15
2022-12-26T07:46:53.266Z,91.33
2022-12-26T07:47:26.937Z,91.80
2022-12-26T07:48:00.581Z,91.82
2022-12-26T07:48:34.213Z,91.29
2022-12-26T07:49:08.305Z,91.49
2022-12-26T07:49:41.812Z,91.28
2022-12-26T07:50:15.430Z,91.21
2022-12-26T07:50:50.012Z,91.34
2022-12-26T07:51:23.519Z,91.53
2022-12-26T07:51:57.546Z,91.76
2022-12-26T07:52:31.266Z,92.35
2022-12-26T07:53:04.782Z,92.88
2022-12-26T07:53:38.720Z,93.31
2022-12-26T07:54:12.902Z,93.34
2022-12-26T07:54:46.485Z,93.32
2022-12-26T07:55:20.064Z,93.03
2022-12-26T07:55:53.659Z,92.97
2022-12-26T07:56:27.247Z,92.90
2022-12-26T07:57:29.832Z,93.06
2022-12-26T07:57:54.523Z,93.22
2022-12-26T07:58:28.326Z,93.17
2022-12-26T07:59:01.927Z,93.06
2022-12-26T07:59:35.857Z,93.09
2022-12-26T08:00:10.395Z,93.03
2022-12-26T08:00:47.834Z,93.21
2022-12-26T08:01:21.542Z,93.05
2022-12-26T08:01:58.301Z,93.21
2022-12-26T08:02:32.164Z,93.27
2022-12-26T08:03:08.120Z,93.10
2022-12-26T08:03:42.094Z,93.03
2022-12-26T08:04:15.673Z,92.93
2022-12-26T08:04:49.193Z,93.02
2022-12-26T08:05:22.833Z,93.01
2022-12-26T08:05:57.197Z,92.20
2022-12-26T08:06:30.817Z,92.37
2022-12-26T08:07:05.048Z,92.59
2022-12-26T08:07:38.753Z,92.47
2022-12-26T08:08:12.375Z,92.62
2022-12-26T08:08:51.203Z,92.46
2022-12-26T08:09:25.111Z,92.15
2022-12-26T08:09:58.674Z,92.18
2022-12-26T08:10:32.672Z,92.18
2022-12-26T08:11:07.873Z,92.22
2022-12-26T08:11:41.401Z,92.14
2022-12-26T08:12:15.457Z,92.11
2022-12-26T08:12:48.983Z,91.92
2022-12-26T08:13:22.449Z,91.91
2022-12-26T08:13:56.165Z,92.17
2022-12-26T08:14:29.787Z,92.20
2022-12-26T08:15:03.510Z,92.11
2022-12-26T08:15:41.006Z,91.71
2022-12-26T08:16:15.500Z,91.54
2022-12-26T08:17:42.561Z,91.62
2022-12-26T08:18:16.125Z,91.56
2022-12-26T08:18:49.770Z,91.24
2022-12-26T08:19:23.356Z,91.48
2022-12-26T08:19:57.032Z,91.51
2022-12-26T08:20:30.710Z,91.17
2022-12-26T08:21:04.481Z,90.83
2022-12-26T08:21:38.535Z,90.80
2022-12-26T08:22:12.621Z,90.50
2022-12-26T08:22:46.412Z,89.72
2022-12-26T08:23:20.122Z,89.09
2022-12-26T08:23:53.866Z,88.59
2022-12-26T08:24:27.463Z,88.92
2022-12-26T08:25:01.236Z,88.83
2022-12-26T08:25:35.025Z,88.28
2022-12-26T08:26:11.531Z,87.82
2022-12-26T08:26:48.695Z,87.97
2022-12-26T08:27:22.501Z,88.00
2022-12-26T08:27:56.098Z,88.12
2022-12-26T08:28:30.294Z,87.90
2022-12-26T08:29:03.980Z,88.04
2022-12-26T08:29:37.703Z,88.00
2022-12-26T08:30:11.862Z,88.11
2022-12-26T08:30:46.861Z,88.27
2022-12-26T08:31:21.570Z,88.09
2022-12-26T08:31:55.363Z,87.90
2022-12-26T08:32:29.019Z,87.44
2022-12-26T08:33:04.197Z,87.53
2022-12-26T08:33:37.852Z,87.39
2022-12-26T08:34:11.892Z,87.36
2022-12-26T08:34:45.460Z,87.14
2022-12-26T08:35:19.135Z,86.64
2022-12-26T08:35:54.224Z,82.99
2022-12-26T08:36:27.948Z,84.76
2022-12-26T08:37:01.803Z,84.72
2022-12-26T08:37:36.000Z,84.62
2022-12-26T08:38:09.670Z,84.07
2022-12-26T08:38:43.621Z,84.23
2022-12-26T08:39:17.107Z,84.91
2022-12-26T08:39:53.723Z,85.17
2022-12-26T08:40:42.608Z,85.07